sensor_id;sensor_type;location;lat;lon;timestamp;temperature;humidity
35395;DHT22;21500;45.308;9.488;2022-10-23T00:00:55;18.00;99.90
35395;DHT22;21500;45.308;9.488;2022-10-23T00:03:22;18.00;99.90
35395;DHT22;21500;45.308;9.488;2022-10-23T00:05:47;18.00;99.90
35395;DHT22;21500;45.308;9.488;2022-10-23T00:08:13;18.00;99.90
35395;DHT22;21500;45.308;9.488;2022-10-23T00:10:41;17.90;99.90
35395;DHT22;21500;45.308;9.488;2022-10-23T00:13:07;17.90;99.90
35395;DHT22;21500;45.308;9.488;2022-10-23T00:15:34;17.90;99.90
35395;DHT22;21500;45.308;9.488;2022-10-23T00:18:01;17.90;99.90
35395;DHT22;21500;45.308;9.488;2022-10-23T00:20:27;17.90;99.90
35395;DHT22;21500;45.308;9.488;2022-10-23T00:22:53;17.80;99.90
35395;DHT22;21500;45.308;9.488;2022-10-23T00:25:19;17.70;99.90
35395;DHT22;21500;45.308;9.488;2022-10-23T00:27:45;17.80;99.90
35395;DHT22;21500;45.308;9.488;2022-10-23T00:30:11;17.80;99.90
35395;DHT22;21500;45.308;9.488;2022-10-23T00:32:38;17.80;99.90
35395;DHT22;21500;45.308;9.488;2022-10-23T00:35:04;17.80;99.90
35395;DHT22;21500;45.308;9.488;2022-10-23T00:37:30;17.80;99.90
35395;DHT22;21500;45.308;9.488;2022-10-23T00:39:56;17.80;99.90
35395;DHT22;21500;45.308;9.488;2022-10-23T00:42:22;17.80;99.90
35395;DHT22;21500;45.308;9.488;2022-10-23T00:47:14;17.70;99.90
35395;DHT22;21500;45.308;9.488;2022-10-23T00:49:41;17.70;99.90
35395;DHT22;21500;45.308;9.488;2022-10-23T00:52:08;17.70;99.90
35395;DHT22;21500;45.308;9.488;2022-10-23T00:54:41;17.70;99.90
35395;DHT22;21500;45.308;9.488;2022-10-23T00:57:11;17.70;99.90
35395;DHT22;21500;45.308;9.488;2022-10-23T00:59:38;17.70;99.90
35395;DHT22;21500;45.308;9.488;2022-10-23T01:02:05;17.60;99.90
35395;DHT22;21500;45.308;9.488;2022-10-23T01:04:31;17.60;99.90
35395;DHT22;21500;45.308;9.488;2022-10-23T01:15:14;17.60;99.90
35395;DHT22;21500;45.308;9.488;2022-10-23T01:17:49;17.70;99.90
35395;DHT22;21500;45.308;9.488;2022-10-23T01:28:29;17.70;99.90
35395;DHT22;21500;45.308;9.488;2022-10-23T01:30:58;17.80;99.90
35395;DHT22;21500;45.308;9.488;2022-10-23T01:33:43;17.70;99.90
35395;DHT22;21500;45.308;9.488;2022-10-23T01:36:13;17.70;99.90
35395;DHT22;21500;45.308;9.488;2022-10-23T01:41:34;17.70;99.90
35395;DHT22;21500;45.308;9.488;2022-10-23T01:44:10;17.70;99.90
35395;DHT22;21500;45.308;9.488;2022-10-23T01:46:38;17.80;99.90
35395;DHT22;21500;45.308;9.488;2022-10-23T01:49:10;17.80;99.90
35395;DHT22;21500;45.308;9.488;2022-10-23T01:51:40;17.80;99.90
35395;DHT22;21500;45.308;9.488;2022-10-23T01:54:09;17.70;99.90
35395;DHT22;21500;45.308;9.488;2022-10-23T01:56:40;17.80;99.90
35395;DHT22;21500;45.308;9.488;2022-10-23T01:59:12;17.70;99.90
35395;DHT22;21500;45.308;9.488;2022-10-23T02:01:41;17.80;99.90
35395;DHT22;21500;45.308;9.488;2022-10-23T02:04:12;17.80;99.90
35395;DHT22;21500;45.308;9.488;2022-10-23T02:06:39;17.80;99.90
35395;DHT22;21500;45.308;9.488;2022-10-23T02:09:06;17.70;99.90
35395;DHT22;21500;45.308;9.488;2022-10-23T02:11:36;17.80;99.90
35395;DHT22;21500;45.308;9.488;2022-10-23T02:17:03;17.70;99.90
35395;DHT22;21500;45.308;9.488;2022-10-23T02:19:55;17.60;99.90
35395;DHT22;21500;45.308;9.488;2022-10-23T02:25:06;17.70;99.90
35395;DHT22;21500;45.308;9.488;2022-10-23T02:27:37;17.50;99.90
35395;DHT22;21500;45.308;9.488;2022-10-23T02:30:08;17.50;99.90
35395;DHT22;21500;45.308;9.488;2022-10-23T02:32:37;17.50;99.90
35395;DHT22;21500;45.308;9.488;2022-10-23T02:35:05;17.40;99.90
35395;DHT22;21500;45.308;9.488;2022-10-23T02:37:32;17.40;99.90
35395;DHT22;21500;45.308;9.488;2022-10-23T02:40:00;17.50;99.90
35395;DHT22;21500;45.308;9.488;2022-10-23T02:42:36;17.60;99.90
35395;DHT22;21500;45.308;9.488;2022-10-23T02:48:15;17.70;99.90
35395;DHT22;21500;45.308;9.488;2022-10-23T02:51:01;17.70;99.90
35395;DHT22;21500;45.308;9.488;2022-10-23T02:56:30;17.70;99.90
35395;DHT22;21500;45.308;9.488;2022-10-23T02:59:06;17.60;99.90
35395;DHT22;21500;45.308;9.488;2022-10-23T03:02:00;17.70;99.90
35395;DHT22;21500;45.308;9.488;2022-10-23T03:04:28;17.70;99.90
35395;DHT22;21500;45.308;9.488;2022-10-23T03:06:56;17.70;99.90
35395;DHT22;21500;45.308;9.488;2022-10-23T03:09:23;17.70;99.90
35395;DHT22;21500;45.308;9.488;2022-10-23T03:11:50;17.60;99.90
35395;DHT22;21500;45.308;9.488;2022-10-23T03:14:16;17.70;99.90
35395;DHT22;21500;45.308;9.488;2022-10-23T03:16:43;17.60;99.90
35395;DHT22;21500;45.308;9.488;2022-10-23T03:19:10;17.50;99.90
35395;DHT22;21500;45.308;9.488;2022-10-23T03:21:36;17.50;99.90
35395;DHT22;21500;45.308;9.488;2022-10-23T03:24:06;17.50;99.90
35395;DHT22;21500;45.308;9.488;2022-10-23T03:26:37;17.50;99.90
35395;DHT22;21500;45.308;9.488;2022-10-23T03:29:03;17.50;99.90
35395;DHT22;21500;45.308;9.488;2022-10-23T03:31:29;17.50;99.90
35395;DHT22;21500;45.308;9.488;2022-10-23T03:33:57;17.40;99.90
35395;DHT22;21500;45.308;9.488;2022-10-23T03:36:24;17.50;99.90
35395;DHT22;21500;45.308;9.488;2022-10-23T03:38:51;17.50;99.90
35395;DHT22;21500;45.308;9.488;2022-10-23T03:41:17;17.50;99.90
35395;DHT22;21500;45.308;9.488;2022-10-23T03:43:43;17.50;99.90
35395;DHT22;21500;45.308;9.488;2022-10-23T03:46:08;17.40;99.90
35395;DHT22;21500;45.308;9.488;2022-10-23T03:48:37;17.50;99.90
35395;DHT22;21500;45.308;9.488;2022-10-23T03:51:04;17.40;99.90
35395;DHT22;21500;45.308;9.488;2022-10-23T03:53:30;17.50;99.90
35395;DHT22;21500;45.308;9.488;2022-10-23T03:55:59;17.40;99.90
35395;DHT22;21500;45.308;9.488;2022-10-23T03:58:25;17.40;99.90
35395;DHT22;21500;45.308;9.488;2022-10-23T04:00:51;17.40;99.90
35395;DHT22;21500;45.308;9.488;2022-10-23T04:03:17;17.40;99.90
35395;DHT22;21500;45.308;9.488;2022-10-23T04:05:43;17.40;99.90
35395;DHT22;21500;45.308;9.488;2022-10-23T04:08:09;17.40;99.90
35395;DHT22;21500;45.308;9.488;2022-10-23T04:10:35;17.50;99.90
35395;DHT22;21500;45.308;9.488;2022-10-23T04:13:01;17.50;99.90
35395;DHT22;21500;45.308;9.488;2022-10-23T04:15:29;17.50;99.90
35395;DHT22;21500;45.308;9.488;2022-10-23T04:17:55;17.50;99.90
35395;DHT22;21500;45.308;9.488;2022-10-23T04:20:21;17.50;99.90
35395;DHT22;21500;45.308;9.488;2022-10-23T04:22:47;17.50;99.90
35395;DHT22;21500;45.308;9.488;2022-10-23T04:25:13;17.50;99.90
35395;DHT22;21500;45.308;9.488;2022-10-23T04:27:39;17.50;99.90
35395;DHT22;21500;45.308;9.488;2022-10-23T04:30:05;17.50;99.90
35395;DHT22;21500;45.308;9.488;2022-10-23T04:32:31;17.50;99.90
35395;DHT22;21500;45.308;9.488;2022-10-23T04:34:57;17.50;99.90
35395;DHT22;21500;45.308;9.488;2022-10-23T04:37:23;17.60;99.90
35395;DHT22;21500;45.308;9.488;2022-10-23T04:39:49;17.50;99.90
35395;DHT22;21500;45.308;9.488;2022-10-23T04:42:14;17.50;99.90
35395;DHT22;21500;45.308;9.488;2022-10-23T04:44:40;17.50;99.90
35395;DHT22;21500;45.308;9.488;2022-10-23T04:47:06;17.50;99.90
35395;DHT22;21500;45.308;9.488;2022-10-23T04:49:38;17.50;99.90
35395;DHT22;21500;45.308;9.488;2022-10-23T04:52:21;17.50;99.90
35395;DHT22;21500;45.308;9.488;2022-10-23T04:55:20;17.50;99.90
35395;DHT22;21500;45.308;9.488;2022-10-23T04:58:09;17.50;99.90
35395;DHT22;21500;45.308;9.488;2022-10-23T05:00:36;17.50;99.90
35395;DHT22;21500;45.308;9.488;2022-10-23T05:03:02;17.50;99.90
35395;DHT22;21500;45.308;9.488;2022-10-23T05:05:36;17.50;99.90
35395;DHT22;21500;45.308;9.488;2022-10-23T05:08:21;17.50;99.90
35395;DHT22;21500;45.308;9.488;2022-10-23T05:11:25;17.50;99.90
35395;DHT22;21500;45.308;9.488;2022-10-23T05:13:51;17.50;99.90
35395;DHT22;21500;45.308;9.488;2022-10-23T05:16:44;17.40;99.90
35395;DHT22;21500;45.308;9.488;2022-10-23T05:19:17;17.50;99.90
35395;DHT22;21500;45.308;9.488;2022-10-23T05:21:44;17.40;99.90
35395;DHT22;21500;45.308;9.488;2022-10-23T05:24:11;17.50;99.90
35395;DHT22;21500;45.308;9.488;2022-10-23T05:26:37;17.40;99.90
35395;DHT22;21500;45.308;9.488;2022-10-23T05:29:06;17.40;99.90
35395;DHT22;21500;45.308;9.488;2022-10-23T05:31:33;17.50;99.90
35395;DHT22;21500;45.308;9.488;2022-10-23T05:34:05;17.50;99.90
35395;DHT22;21500;45.308;9.488;2022-10-23T05:36:33;17.30;99.90
35395;DHT22;21500;45.308;9.488;2022-10-23T05:38:59;17.30;99.90
35395;DHT22;21500;45.308;9.488;2022-10-23T05:41:25;17.40;99.90
35395;DHT22;21500;45.308;9.488;2022-10-23T05:43:55;17.40;99.90
35395;DHT22;21500;45.308;9.488;2022-10-23T05:46:43;17.40;99.90
35395;DHT22;21500;45.308;9.488;2022-10-23T05:49:44;17.40;99.90
35395;DHT22;21500;45.308;9.488;2022-10-23T05:52:28;17.40;99.90
35395;DHT22;21500;45.308;9.488;2022-10-23T05:55:15;17.30;99.90
35395;DHT22;21500;45.308;9.488;2022-10-23T05:58:19;17.30;99.90
35395;DHT22;21500;45.308;9.488;2022-10-23T06:01:13;17.30;99.90
35395;DHT22;21500;45.308;9.488;2022-10-23T06:04:09;17.30;99.90
35395;DHT22;21500;45.308;9.488;2022-10-23T06:07:03;17.40;99.90
35395;DHT22;21500;45.308;9.488;2022-10-23T06:09:30;17.30;99.90
35395;DHT22;21500;45.308;9.488;2022-10-23T06:11:57;17.30;99.90
35395;DHT22;21500;45.308;9.488;2022-10-23T06:14:22;17.30;99.90
35395;DHT22;21500;45.308;9.488;2022-10-23T06:16:50;17.40;99.90
35395;DHT22;21500;45.308;9.488;2022-10-23T06:19:46;17.40;99.90
35395;DHT22;21500;45.308;9.488;2022-10-23T06:22:16;17.30;99.90
35395;DHT22;21500;45.308;9.488;2022-10-23T08:01:56;18.70;99.90
35395;DHT22;21500;45.308;9.488;2022-10-23T11:10:25;23.10;99.90
35395;DHT22;21500;45.308;9.488;2022-10-23T11:13:16;23.00;99.90
35395;DHT22;21500;45.308;9.488;2022-10-23T16:55:14;21.20;99.90
35395;DHT22;21500;45.308;9.488;2022-10-23T17:44:05;20.80;99.90
35395;DHT22;21500;45.308;9.488;2022-10-23T17:55:26;20.70;99.90
35395;DHT22;21500;45.308;9.488;2022-10-23T18:32:55;20.30;99.90
35395;DHT22;21500;45.308;9.488;2022-10-23T18:45:09;20.20;99.90
35395;DHT22;21500;45.308;9.488;2022-10-23T19:00:59;19.90;99.90
35395;DHT22;21500;45.308;9.488;2022-10-23T19:09:11;19.90;99.90
